Time;durP1;ratioP1;P1;durP2;ratioP2;P2;SDS_P1;SDS_P2;PMS_P1;PMS_P2;Temp;Humidity;BMP_temperature;BMP_pressure;BME280_temperature;BME280_humidity;BME280_pressure;Samples;Min_cycle;Max_cycle;Signal;HPM_P1;HPM_P2
2021/11/22 00:01:23;;;;;;;33;20.3;;;;;;;4.47;94.6084;932.5522;;;;
2021/11/22 00:03:50;;;;;;;30.9;19.8;;;;;;;4.5;94.04102;932.6286;;;;
2021/11/22 00:06:15;;;;;;;32.1;19.4;;;;;;;4.32;94.76563;932.591;;;;
2021/11/22 00:08:40;;;;;;;34;20.3;;;;;;;4.34;94.78125;932.5781;;;;
2021/11/22 00:11:06;;;;;;;35;20.4;;;;;;;4.36;94.96777;932.671;;;;
2021/11/22 00:13:31;;;;;;;35.5;20.1;;;;;;;4.33;94.88086;932.6378;;;;
2021/11/22 00:16:02;;;;;;;35.4;19.5;;;;;;;4.3;94.84082;932.6166;;;;
2021/11/22 00:18:28;;;;;;;36.8;20.7;;;;;;;4.3;95.04102;932.6306;;;;
2021/11/22 00:20:55;;;;;;;35.7;21.4;;;;;;;4.33;95.02441;932.6487;;;;
2021/11/22 00:23:20;;;;;;;38.1;20.6;;;;;;;4.37;94.97852;932.6119;;;;
2021/11/22 00:26:16;;;;;;;36.7;20.8;;;;;;;4.42;94.76563;932.6102;;;;
2021/11/22 00:28:45;;;;;;;37.5;21.3;;;;;;;4.35;94.83008;932.543;;;;
2021/11/22 00:31:10;;;;;;;34.9;21;;;;;;;4.32;94.77734;932.6297;;;;
2021/11/22 00:33:37;;;;;;;37.6;21;;;;;;;4.36;94.67285;932.6273;;;;
2021/11/22 00:55:09;;;;;;;34.8;20.6;;;;;;;3.92;96.4541;932.8203;;;;
2021/11/22 00:57:34;;;;;;;37.4;19.9;;;;;;;3.97;96.09375;932.7586;;;;
2021/11/22 01:00:00;;;;;;;35.8;18.9;;;;;;;3.81;96.68652;932.7128;;;;
2021/11/22 01:02:25;;;;;;;35;18.7;;;;;;;3.74;96.83789;932.8453;;;;
2021/11/22 01:04:50;;;;;;;39.4;21;;;;;;;3.87;96.65332;932.9023;;;;
2021/11/22 01:07:15;;;;;;;35;19.6;;;;;;;3.86;96.65332;932.8533;;;;
2021/11/22 01:09:41;;;;;;;36;19.8;;;;;;;3.9;96.74219;932.8686;;;;
2021/11/22 01:12:07;;;;;;;35.1;19;;;;;;;4;96.12207;932.8978;;;;
2021/11/22 01:14:36;;;;;;;34.7;19.4;;;;;;;3.87;96.54102;932.9685;;;;
2021/11/22 01:17:00;;;;;;;35.5;19.7;;;;;;;3.86;96.82227;933.0543;;;;
2021/11/22 01:19:28;;;;;;;36.9;19.4;;;;;;;3.85;96.59473;933.0997;;;;
2021/11/22 01:21:53;;;;;;;36.1;19.7;;;;;;;3.95;96.27148;933.0173;;;;
2021/11/22 01:24:22;;;;;;;37.3;20.2;;;;;;;4.02;95.96875;933.1183;;;;
2021/11/22 01:26:48;;;;;;;33.2;19.2;;;;;;;4.06;95.62988;933.0603;;;;
2021/11/22 01:29:14;;;;;;;36.2;19.4;;;;;;;3.89;95.77148;933.1188;;;;
2021/11/22 01:31:39;;;;;;;37.4;18.9;;;;;;;3.87;96.3291;933.1207;;;;
2021/11/22 01:34:08;;;;;;;40;20;;;;;;;3.95;96.0127;933.1196;;;;
2021/11/22 01:36:36;;;;;;;37.3;19.8;;;;;;;3.84;96.15234;933.0623;;;;
2021/11/22 01:39:01;;;;;;;35.2;19.3;;;;;;;3.79;96.33398;933.134;;;;
2021/11/22 01:41:28;;;;;;;33.7;19.6;;;;;;;3.85;96.38184;933.1076;;;;
2021/11/22 01:43:53;;;;;;;38.2;20.5;;;;;;;3.8;96.63867;933.1342;;;;
2021/11/22 01:46:19;;;;;;;36.4;20.5;;;;;;;3.85;96.52539;933.1223;;;;
2021/11/22 01:48:45;;;;;;;37.1;20.1;;;;;;;3.75;96.90723;933.1407;;;;
2021/11/22 01:51:19;;;;;;;34.6;18.2;;;;;;;3.85;96.44922;933.1445;;;;
2021/11/22 01:53:47;;;;;;;34.3;18.8;;;;;;;3.92;96.16016;933.1313;;;;
2021/11/22 01:56:12;;;;;;;36.7;19;;;;;;;3.77;96.37402;933.1783;;;;
2021/11/22 01:58:37;;;;;;;32.8;18.7;;;;;;;3.7;96.82129;933.1939;;;;
2021/11/22 02:01:05;;;;;;;37;19.8;;;;;;;3.72;96.74609;933.1825;;;;
2021/11/22 02:03:30;;;;;;;37.5;19.6;;;;;;;3.79;96.77344;933.1443;;;;
2021/11/22 02:05:59;;;;;;;39.1;20.3;;;;;;;3.93;96.1416;933.2222;;;;
2021/11/22 02:08:24;;;;;;;37.7;20;;;;;;;3.88;96.4668;933.2523;;;;
2021/11/22 02:10:49;;;;;;;34.2;19;;;;;;;3.98;95.78223;933.2361;;;;
2021/11/22 02:13:17;;;;;;;35.1;18.9;;;;;;;3.91;95.64258;933.2556;;;;
2021/11/22 02:16:03;;;;;;;34.8;19.6;;;;;;;3.97;95.62109;933.3176;;;;
2021/11/22 02:18:30;;;;;;;37.2;19.5;;;;;;;4.04;95.47949;933.3585;;;;
2021/11/22 02:21:03;;;;;;;33.9;18.6;;;;;;;4;95.37988;933.3649;;;;
2021/11/22 02:23:34;;;;;;;37.1;19.4;;;;;;;3.98;95.75977;933.3567;;;;
2021/11/22 02:25:59;;;;;;;33.7;18.7;;;;;;;4.08;95.25391;933.3777;;;;
2021/11/22 02:28:27;;;;;;;34.8;18.6;;;;;;;4.16;94.68457;933.3731;;;;
2021/11/22 02:30:58;;;;;;;36.3;18.9;;;;;;;4.17;94.65332;933.4122;;;;
2021/11/22 02:33:24;;;;;;;32.7;18.3;;;;;;;3.99;94.79297;933.4144;;;;
2021/11/22 02:36:28;;;;;;;34.7;19.1;;;;;;;3.95;94.9873;933.4133;;;;
2021/11/22 02:38:47;;;;;;;35.8;18.2;;;;;;;3.84;95.62598;933.4278;;;;
2021/11/22 02:41:15;;;;;;;37.5;18.7;;;;;;;3.75;96.10254;933.5101;;;;
2021/11/22 02:46:05;;;;;;;36.4;18.4;;;;;;;3.87;95.94727;933.4639;;;;
2021/11/22 02:48:35;;;;;;;37.9;19.1;;;;;;;3.8;96.48145;933.4153;;;;
2021/11/22 02:50:59;;;;;;;37.3;19.6;;;;;;;3.82;96.18457;933.4242;;;;
2021/11/22 02:53:26;;;;;;;37.7;17.7;;;;;;;3.56;97.00098;933.492;;;;
2021/11/22 02:55:52;;;;;;;36.4;19.3;;;;;;;3.49;98.00684;933.5129;;;;
2021/11/22 02:58:17;;;;;;;35.3;19.4;;;;;;;3.63;97.81543;933.4306;;;;
2021/11/22 03:00:42;;;;;;;37.3;18.9;;;;;;;3.71;97.6748;933.3853;;;;
2021/11/22 03:03:10;;;;;;;38;18.6;;;;;;;3.7;97.3916;933.4567;;;;
2021/11/22 03:05:35;;;;;;;36.8;17.9;;;;;;;3.57;97.75586;933.457;;;;
2021/11/22 03:08:00;;;;;;;35.3;18.1;;;;;;;3.56;98.06836;933.4637;;;;
2021/11/22 03:10:26;;;;;;;38.3;18.2;;;;;;;3.57;98.07031;933.4727;;;;
2021/11/22 03:12:56;;;;;;;31.8;16.7;;;;;;;3.64;97.58008;933.5095;;;;
2021/11/22 03:15:44;;;;;;;31.8;17.1;;;;;;;3.59;97.44824;933.5725;;;;
2021/11/22 03:18:17;;;;;;;33.7;16.7;;;;;;;3.54;97.6582;933.5842;;;;
2021/11/22 03:20:44;;;;;;;29.6;16;;;;;;;3.57;98.0127;933.5677;;;;
2021/11/22 03:23:15;;;;;;;31.8;16.8;;;;;;;3.59;98.07227;933.5872;;;;
2021/11/22 03:25:44;;;;;;;33.5;16.7;;;;;;;3.69;97.43457;933.588;;;;
2021/11/22 03:28:11;;;;;;;27;15.8;;;;;;;3.52;97.99121;933.5656;;;;
2021/11/22 03:30:34;;;;;;;34.8;17;;;;;;;3.62;97.55273;933.6152;;;;
2021/11/22 03:33:02;;;;;;;31.7;16.1;;;;;;;3.63;97.41992;933.6367;;;;
2021/11/22 03:35:27;;;;;;;32;16.8;;;;;;;3.67;97.36328;933.6937;;;;
2021/11/22 03:37:55;;;;;;;32.4;16.4;;;;;;;3.74;96.82715;933.7145;;;;
2021/11/22 03:40:26;;;;;;;29;15.8;;;;;;;3.73;96.41992;933.7307;;;;
2021/11/22 03:43:02;;;;;;;27.4;16.1;;;;;;;3.77;96.3291;933.7609;;;;
2021/11/22 03:48:22;;;;;;;32.6;16.3;;;;;;;3.66;96.89844;933.8036;;;;
2021/11/22 03:50:50;;;;;;;28;15.5;;;;;;;3.52;97.36133;933.8231;;;;
2021/11/22 03:53:23;;;;;;;31.3;16.2;;;;;;;3.66;97.03516;933.9431;;;;
2021/11/22 03:55:57;;;;;;;32.2;15.4;;;;;;;3.78;96.63477;933.9819;;;;
2021/11/22 03:58:33;;;;;;;30.6;15.7;;;;;;;3.92;95.80176;933.9623;;;;
2021/11/22 04:02:44;;;;;;;29.3;15;;;;;;;4.03;95.1875;934.0144;;;;
2021/11/22 04:05:10;;;;;;;29.9;15.4;;;;;;;4;94.60352;934.0549;;;;
2021/11/22 04:07:35;;;;;;;31.6;16.1;;;;;;;3.93;94.91602;934.1342;;;;
2021/11/22 04:10:27;;;;;;;30.7;15.3;;;;;;;4;94.76074;934.0999;;;;
2021/11/22 04:12:55;;;;;;;25.8;13.5;;;;;;;3.68;95.9043;934.1213;;;;
2021/11/22 04:15:33;;;;;;;27.3;14.3;;;;;;;3.75;95.93164;934.1786;;;;
2021/11/22 04:18:07;;;;;;;27.3;14.6;;;;;;;3.79;95.96289;934.1717;;;;
2021/11/22 04:20:32;;;;;;;27.2;14.6;;;;;;;3.63;96.47852;934.1485;;;;
2021/11/22 04:23:02;;;;;;;28.5;15;;;;;;;3.46;97.02344;934.1866;;;;
2021/11/22 04:25:27;;;;;;;32.4;16.4;;;;;;;3.62;96.89258;934.1678;;;;
2021/11/22 04:27:55;;;;;;;32.5;15.5;;;;;;;3.73;96.61328;934.1497;;;;
2021/11/22 04:30:22;;;;;;;28;14.4;;;;;;;3.78;96.32031;934.2203;;;;
2021/11/22 04:32:51;;;;;;;29.9;14.5;;;;;;;3.88;95.8252;934.2249;;;;
2021/11/22 04:35:16;;;;;;;28;14.1;;;;;;;3.83;95.63574;934.2433;;;;
2021/11/22 04:37:45;;;;;;;31.5;15.8;;;;;;;3.72;96.07227;934.2227;;;;
2021/11/22 04:40:31;;;;;;;29.1;14.6;;;;;;;3.79;95.94043;934.2378;;;;
2021/11/22 04:43:03;;;;;;;29.4;15.5;;;;;;;3.54;96.48047;934.2487;;;;
2021/11/22 04:45:33;;;;;;;32.3;16;;;;;;;3.73;96.50098;934.3126;;;;
2021/11/22 04:54:34;;;;;;;27.5;15.9;;;;;;;3.79;95.93066;934.3884;;;;
2021/11/22 04:57:02;;;;;;;36.3;17.2;;;;;;;3.79;95.89746;934.4026;;;;
2021/11/22 04:59:26;;;;;;;31.6;16.1;;;;;;;3.85;95.69629;934.4322;;;;
2021/11/22 05:03:00;;;;;;;35.2;16.7;;;;;;;3.93;95.4668;934.4863;;;;
2021/11/22 05:05:25;;;;;;;33;15.6;;;;;;;3.91;95.125;934.4235;;;;
2021/11/22 05:07:54;;;;;;;32.8;16.4;;;;;;;3.81;95.25879;934.5057;;;;
2021/11/22 05:10:22;;;;;;;34.2;16.2;;;;;;;3.76;95.83301;934.4411;;;;
2021/11/22 05:12:46;;;;;;;32.6;16;;;;;;;3.86;95.47266;934.4811;;;;
2021/11/22 05:15:22;;;;;;;32.2;16.8;;;;;;;3.89;95.49023;934.5276;;;;
2021/11/22 05:17:50;;;;;;;36.8;16.8;;;;;;;3.97;95.11523;934.5497;;;;
2021/11/22 05:20:18;;;;;;;31.5;16.1;;;;;;;3.9;94.96387;934.5327;;;;
2021/11/22 05:22:49;;;;;;;37.6;15.6;;;;;;;3.89;95.13281;934.5577;;;;
2021/11/22 05:25:19;;;;;;;34.4;16.2;;;;;;;3.86;95.09082;934.5472;;;;
2021/11/22 05:30:51;;;;;;;38.1;17.8;;;;;;;3.74;95.64941;934.5287;;;;
2021/11/22 05:33:20;;;;;;;38.8;16.3;;;;;;;3.8;95.61621;934.5059;;;;
2021/11/22 05:35:53;;;;;;;35.3;17.1;;;;;;;3.72;96.19531;934.525;;;;
2021/11/22 05:38:26;;;;;;;33.8;16.8;;;;;;;3.68;96.34277;934.5412;;;;
2021/11/22 05:40:58;;;;;;;40.6;18.1;;;;;;;3.72;96.49902;934.5156;;;;
2021/11/22 05:43:28;;;;;;;38.5;17.5;;;;;;;3.68;96.43262;934.5583;;;;
2021/11/22 05:45:55;;;;;;;38.9;17.7;;;;;;;3.72;96.3623;934.5485;;;;
2021/11/22 05:48:20;;;;;;;38;16.4;;;;;;;3.81;96.22559;934.5923;;;;
2021/11/22 05:50:50;;;;;;;35.9;17.1;;;;;;;3.83;96.24023;934.6242;;;;
2021/11/22 05:53:20;;;;;;;39.7;18.1;;;;;;;3.84;96.05371;934.6719;;;;
2021/11/22 05:55:50;;;;;;;37.3;17;;;;;;;3.85;95.57227;934.6281;;;;
2021/11/22 05:58:12;;;;;;;37.5;18.4;;;;;;;3.92;95.49609;934.6277;;;;
2021/11/22 06:00:40;;;;;;;37.8;17.9;;;;;;;3.86;95.77637;934.7173;;;;
2021/11/22 06:03:05;;;;;;;36.2;17.5;;;;;;;3.89;95.66992;934.738;;;;
2021/11/22 06:05:35;;;;;;;34.6;17.4;;;;;;;3.87;95.65332;934.8617;;;;
2021/11/22 06:08:03;;;;;;;34.6;16.6;;;;;;;3.65;96.28027;934.8992;;;;
2021/11/22 06:10:28;;;;;;;37;17.5;;;;;;;3.57;96.79004;934.9163;;;;
2021/11/22 06:12:57;;;;;;;38.6;17.3;;;;;;;3.7;96.74219;934.9692;;;;
2021/11/22 06:15:23;;;;;;;38.9;17.7;;;;;;;3.73;96.50098;935.0661;;;;
2021/11/22 06:17:49;;;;;;;35;17.3;;;;;;;3.64;96.81543;935.1099;;;;
2021/11/22 06:20:14;;;;;;;42.2;17.7;;;;;;;3.78;96.4668;935.1289;;;;
2021/11/22 06:22:44;;;;;;;36.7;17.8;;;;;;;3.65;96.77441;935.1097;;;;
2021/11/22 06:25:15;;;;;;;37.4;17.1;;;;;;;3.67;96.90234;935.218;;;;
2021/11/22 06:27:41;;;;;;;37.9;17.4;;;;;;;3.69;96.68164;935.2366;;;;
2021/11/22 06:30:12;;;;;;;41.2;17.1;;;;;;;3.62;96.81152;935.3123;;;;
2021/11/22 06:32:42;;;;;;;38.5;16.7;;;;;;;3.6;96.78711;935.3599;;;;
2021/11/22 06:35:17;;;;;;;37.1;16.3;;;;;;;3.62;96.78906;935.3862;;;;
2021/11/22 06:37:40;;;;;;;34.2;15.4;;;;;;;3.75;96.60645;935.3833;;;;
2021/11/22 06:40:11;;;;;;;35.6;17.2;;;;;;;3.84;95.95215;935.4185;;;;
2021/11/22 06:42:38;;;;;;;37.5;16.6;;;;;;;3.8;95.72852;935.4327;;;;
2021/11/22 06:45:06;;;;;;;35.6;17.1;;;;;;;3.69;96.08594;935.483;;;;
2021/11/22 06:47:35;;;;;;;38.2;16.9;;;;;;;3.75;96.22168;935.4634;;;;
2021/11/22 06:50:00;;;;;;;36.1;15.7;;;;;;;3.87;95.50879;935.524;;;;
2021/11/22 06:52:28;;;;;;;40.7;17.7;;;;;;;3.9;94.95313;935.573;;;;
2021/11/22 06:54:55;;;;;;;36.9;16.7;;;;;;;3.87;95.01367;935.5823;;;;
2021/11/22 06:57:21;;;;;;;35.9;17.9;;;;;;;3.89;94.83984;935.5516;;;;
2021/11/22 06:59:49;;;;;;;36.1;16.4;;;;;;;3.88;94.92871;935.5592;;;;
2021/11/22 07:02:16;;;;;;;39;17.8;;;;;;;3.97;94.35254;935.5997;;;;
2021/11/22 07:04:39;;;;;;;39.4;17.3;;;;;;;3.93;93.83691;935.6552;;;;
2021/11/22 07:07:11;;;;;;;38.2;16.8;;;;;;;3.7;94.9668;935.6833;;;;
2021/11/22 07:09:40;;;;;;;40.8;17.8;;;;;;;3.77;94.91309;935.7547;;;;
2021/11/22 07:12:14;;;;;;;39.8;17.9;;;;;;;3.71;95.0791;935.7026;;;;
2021/11/22 07:14:46;;;;;;;39.3;18.6;;;;;;;3.72;95.21777;935.6555;;;;
2021/11/22 07:17:20;;;;;;;40.1;17.8;;;;;;;3.62;95.88086;935.6817;;;;
2021/11/22 07:19:46;;;;;;;37.7;17.3;;;;;;;3.49;97.24316;935.6456;;;;
2021/11/22 07:22:11;;;;;;;47.1;18.1;;;;;;;3.47;97.29492;935.5539;;;;
2021/11/22 07:24:37;;;;;;;45.4;18.4;;;;;;;3.32;97.93555;935.6292;;;;
2021/11/22 07:27:01;;;;;;;45.8;18.1;;;;;;;3.27;98.24902;935.6197;;;;
2021/11/22 07:29:31;;;;;;;42.4;17.9;;;;;;;3.34;98.32129;935.7203;;;;
2021/11/22 07:32:01;;;;;;;43.3;18.2;;;;;;;3.32;98.69922;935.7778;;;;
2021/11/22 07:37:53;;;;;;;42.5;18.1;;;;;;;3.25;99.51074;935.7676;;;;
2021/11/22 07:40:24;;;;;;;46.2;18;;;;;;;3.4;99.13184;935.8976;;;;
2021/11/22 07:42:49;;;;;;;42.7;17.3;;;;;;;3.44;98.69043;935.9125;;;;
2021/11/22 07:45:18;;;;;;;41.2;18.5;;;;;;;3.56;98.42773;935.8975;;;;
2021/11/22 07:47:49;;;;;;;43.4;17.1;;;;;;;3.55;98.10938;935.9915;;;;
2021/11/22 07:50:13;;;;;;;44.2;17.6;;;;;;;3.55;97.73828;936.0466;;;;
2021/11/22 07:52:44;;;;;;;42.4;17.5;;;;;;;3.55;97.60547;936.1041;;;;
2021/11/22 07:55:14;;;;;;;40;16.7;;;;;;;3.56;97.75195;936.1728;;;;
2021/11/22 07:57:39;;;;;;;40.7;17;;;;;;;3.53;97.56641;936.1783;;;;
2021/11/22 08:00:07;;;;;;;34.4;15.5;;;;;;;3.42;98.00195;936.1219;;;;
2021/11/22 08:02:32;;;;;;;46.1;17.6;;;;;;;3.67;97.61035;936.2036;;;;
2021/11/22 08:04:57;;;;;;;36.4;17.1;;;;;;;3.75;96.89844;936.3036;;;;
2021/11/22 08:07:26;;;;;;;36.6;15.3;;;;;;;3.72;96.86816;936.3601;;;;
2021/11/22 08:09:57;;;;;;;35.6;15;;;;;;;3.81;96.1582;936.428;;;;
2021/11/22 08:12:25;;;;;;;31.8;14.4;;;;;;;3.94;95.4668;936.3901;;;;
2021/11/22 08:14:41;;;;;;;32.7;14.4;;;;;;;3.96;95.00098;936.532;;;;
2021/11/22 08:17:09;;;;;;;32.3;14.5;;;;;;;3.95;95.11133;936.548;;;;
2021/11/22 08:19:34;;;;;;;27.5;14.4;;;;;;;3.96;94.97852;936.5352;;;;
2021/11/22 08:21:59;;;;;;;28.4;13.3;;;;;;;3.86;95.37207;936.6036;;;;
2021/11/22 08:24:26;;;;;;;28.4;13.9;;;;;;;4.06;94.71875;936.6447;;;;
2021/11/22 08:26:52;;;;;;;29.2;14.2;;;;;;;4.04;93.97266;936.7015;;;;
2021/11/22 08:29:23;;;;;;;30.8;13.6;;;;;;;4.2;93.48926;936.7395;;;;
2021/11/22 08:31:48;;;;;;;28.8;14;;;;;;;4.32;93.12305;936.7703;;;;
2021/11/22 08:34:13;;;;;;;31;13.8;;;;;;;4.12;92.96484;936.7615;;;;
2021/11/22 08:36:41;;;;;;;31.2;14.7;;;;;;;4.09;93.71289;936.8474;;;;
2021/11/22 08:39:06;;;;;;;27.3;13.6;;;;;;;3.95;94.1123;936.812;;;;
2021/11/22 08:41:33;;;;;;;28.3;14;;;;;;;4.07;94.48242;936.7339;;;;
2021/11/22 08:43:58;;;;;;;30.8;14.3;;;;;;;4.09;93.92871;936.8711;;;;
2021/11/22 08:46:27;;;;;;;31.2;14.9;;;;;;;4.06;93.80762;936.8968;;;;
2021/11/22 08:48:51;;;;;;;30.5;14.6;;;;;;;3.91;94.69824;936.9242;;;;
2021/11/22 08:51:20;;;;;;;34.1;15.1;;;;;;;4.08;94.20801;936.9291;;;;
2021/11/22 08:53:45;;;;;;;29.5;14.9;;;;;;;4.18;93.81152;936.9919;;;;
2021/11/22 08:56:13;;;;;;;28.9;14.4;;;;;;;4.08;93.85938;937.0489;;;;
2021/11/22 08:58:38;;;;;;;30.3;15.3;;;;;;;4.08;93.49707;937.0739;;;;
2021/11/22 09:01:08;;;;;;;30.3;14.9;;;;;;;4.15;93.45703;937.1778;;;;
2021/11/22 09:03:35;;;;;;;30.3;13.8;;;;;;;4.25;93.20801;937.1811;;;;
2021/11/22 09:05:58;;;;;;;31.9;14.4;;;;;;;4.26;92.7959;937.0997;;;;
2021/11/22 09:08:26;;;;;;;27.8;14.1;;;;;;;4.28;92.70996;937.1981;;;;
2021/11/22 09:10:51;;;;;;;27.9;14.9;;;;;;;4.42;92.46973;937.2498;;;;
2021/11/22 09:13:17;;;;;;;27.4;14.6;;;;;;;4.35;92.18359;937.2054;;;;
2021/11/22 09:15:52;;;;;;;27.9;13.8;;;;;;;4.39;92.42969;937.2731;;;;
2021/11/22 09:18:22;;;;;;;26.9;13.2;;;;;;;4.46;92.50195;937.2258;;;;
2021/11/22 09:20:48;;;;;;;27;13.4;;;;;;;4.27;91.97461;937.2637;;;;
2021/11/22 09:23:16;;;;;;;22.7;12;;;;;;;4.39;91.9209;937.2484;;;;
2021/11/22 09:25:42;;;;;;;22.1;12.5;;;;;;;4.44;92.06836;937.2408;;;;
2021/11/22 09:28:07;;;;;;;25.8;13.4;;;;;;;4.66;91.54004;937.2067;;;;
2021/11/22 09:30:35;;;;;;;25.7;13.9;;;;;;;4.85;90.7041;937.2403;;;;
2021/11/22 09:33:00;;;;;;;23.8;12.5;;;;;;;4.95;89.72266;937.2209;;;;
2021/11/22 09:35:29;;;;;;;20.9;12.5;;;;;;;4.92;89.04004;937.1871;;;;
2021/11/22 09:37:58;;;;;;;25;12.7;;;;;;;4.88;89.2334;937.1677;;;;
2021/11/22 09:40:24;;;;;;;24;12.8;;;;;;;4.89;89.30566;937.154;;;;
2021/11/22 09:42:54;;;;;;;19.7;12.2;;;;;;;4.98;88.75879;937.1555;;;;
2021/11/22 09:45:17;;;;;;;23;11.9;;;;;;;5;88.28906;937.134;;;;
2021/11/22 09:47:44;;;;;;;24.2;13.8;;;;;;;4.93;89.11914;937.2142;;;;
2021/11/22 09:50:09;;;;;;;26.2;14.1;;;;;;;4.94;88.66992;937.2072;;;;
2021/11/22 09:52:36;;;;;;;24.3;13.5;;;;;;;5;88.15332;937.2303;;;;
2021/11/22 09:55:01;;;;;;;26;14.4;;;;;;;5.09;87.95801;937.2214;;;;
2021/11/22 09:57:29;;;;;;;23.7;13.1;;;;;;;4.98;87.69922;937.2684;;;;
2021/11/22 09:59:54;;;;;;;24.3;13.7;;;;;;;4.86;87.8877;937.2792;;;;
2021/11/22 10:02:27;;;;;;;24.2;13.2;;;;;;;4.8;88.85645;937.2471;;;;
2021/11/22 10:04:46;;;;;;;24.3;14.4;;;;;;;4.83;88.60254;937.2664;;;;
2021/11/22 10:07:15;;;;;;;26.8;14;;;;;;;4.94;88.86426;937.2665;;;;
2021/11/22 10:09:39;;;;;;;24.8;14.2;;;;;;;5.06;88.5166;937.256;;;;
2021/11/22 10:12:02;;;;;;;25.1;13.8;;;;;;;5.03;88.12695;937.2417;;;;
2021/11/22 10:14:39;;;;;;;23.1;12.7;;;;;;;4.79;88.89941;937.1987;;;;
2021/11/22 10:17:07;;;;;;;21.3;12.3;;;;;;;4.82;89.17773;937.3672;;;;
2021/11/22 10:19:36;;;;;;;24.9;14.1;;;;;;;4.81;88.50879;937.3992;;;;
2021/11/22 10:22:07;;;;;;;22.6;13.3;;;;;;;4.66;89.36914;937.3661;;;;
2021/11/22 10:24:32;;;;;;;24.2;13.1;;;;;;;4.64;89.89453;937.4081;;;;
2021/11/22 10:26:57;;;;;;;22.9;12.2;;;;;;;4.83;89.70703;937.4581;;;;
2021/11/22 10:29:28;;;;;;;25.4;13.8;;;;;;;4.92;88.40723;937.512;;;;
2021/11/22 10:31:53;;;;;;;25.3;14;;;;;;;4.92;87.93457;937.5522;;;;
2021/11/22 10:34:18;;;;;;;22.8;12.6;;;;;;;5.09;87.25879;937.5291;;;;
2021/11/22 10:36:47;;;;;;;21;12.2;;;;;;;4.84;87.86328;937.5034;;;;
2021/11/22 10:39:16;;;;;;;20.9;12.6;;;;;;;5.09;87.4375;937.533;;;;
2021/11/22 10:41:46;;;;;;;21.1;11.7;;;;;;;4.78;88.8623;937.4476;;;;
2021/11/22 10:44:11;;;;;;;21.4;11.9;;;;;;;4.87;89.0293;937.5359;;;;
2021/11/22 10:46:41;;;;;;;23.5;12.7;;;;;;;4.79;88.33398;937.4148;;;;
2021/11/22 10:49:01;;;;;;;23;12.8;;;;;;;4.62;89.24707;937.4327;;;;
2021/11/22 10:51:27;;;;;;;22.4;12.4;;;;;;;4.75;89.20703;937.4689;;;;
2021/11/22 10:53:55;;;;;;;20.8;12.2;;;;;;;4.84;88.13281;937.5012;;;;
2021/11/22 10:56:20;;;;;;;21.8;12.8;;;;;;;4.79;88.00977;937.46;;;;
2021/11/22 10:58:45;;;;;;;19.3;11.9;;;;;;;4.93;87.42871;937.5225;;;;
2021/11/22 11:01:10;;;;;;;21.8;12.2;;;;;;;5;87.24219;937.452;;;;
2021/11/22 11:03:35;;;;;;;23;13.5;;;;;;;4.87;87.41992;937.5162;;;;
2021/11/22 11:06:03;;;;;;;21.5;12.4;;;;;;;4.71;87.99316;937.5213;;;;
2021/11/22 11:08:28;;;;;;;21.2;12.2;;;;;;;4.8;87.93262;937.4128;;;;
2021/11/22 11:10:56;;;;;;;21.3;12.5;;;;;;;4.58;88.93457;937.5291;;;;
2021/11/22 11:13:24;;;;;;;21.8;12.8;;;;;;;4.77;88.24219;937.486;;;;
2021/11/22 11:15:52;;;;;;;24.5;13.4;;;;;;;4.74;88.90137;937.4388;;;;
2021/11/22 11:18:18;;;;;;;23.3;13.5;;;;;;;4.63;89.51855;937.4731;;;;
2021/11/22 11:20:49;;;;;;;26.9;14.1;;;;;;;4.61;89.70605;937.528;;;;
2021/11/22 11:23:14;;;;;;;25.4;13.8;;;;;;;4.57;89.27051;937.5508;;;;
2021/11/22 11:25:41;;;;;;;26.3;13.3;;;;;;;4.63;89.11328;937.5363;;;;
2021/11/22 11:28:06;;;;;;;27.1;13.7;;;;;;;4.61;89.32324;937.5192;;;;
2021/11/22 11:30:36;;;;;;;26.3;14.1;;;;;;;4.51;90.20117;937.537;;;;
2021/11/22 11:33:03;;;;;;;26.1;14;;;;;;;4.54;90.14355;937.6005;;;;
2021/11/22 11:35:26;;;;;;;25.8;14;;;;;;;4.58;89.98047;937.5723;;;;
2021/11/22 11:38:31;;;;;;;24.4;13.3;;;;;;;4.7;89.74805;937.5598;;;;
2021/11/22 11:40:55;;;;;;;23.2;13.5;;;;;;;4.84;89.2373;937.5549;;;;
2021/11/22 11:43:20;;;;;;;21.8;13;;;;;;;4.93;88.11621;937.5525;;;;
2021/11/22 11:45:45;;;;;;;24.7;13.2;;;;;;;4.84;88.19922;937.5206;;;;
2021/11/22 11:48:10;;;;;;;23.7;12.7;;;;;;;4.89;88.96484;937.5126;;;;
2021/11/22 11:50:37;;;;;;;22.8;12.3;;;;;;;4.5;90.46094;937.4509;;;;
2021/11/22 11:53:00;;;;;;;23.6;12.7;;;;;;;4.69;90.7373;937.6209;;;;
2021/11/22 11:55:29;;;;;;;22.3;12.9;;;;;;;4.67;89.65234;937.6227;;;;
2021/11/22 11:57:56;;;;;;;23.6;12.9;;;;;;;4.74;90.15137;937.6746;;;;
2021/11/22 12:00:21;;;;;;;23.5;13.3;;;;;;;4.71;90.80859;937.7202;;;;
2021/11/22 12:02:47;;;;;;;20.6;12.5;;;;;;;5;89.44043;937.7267;;;;
2021/11/22 12:05:13;;;;;;;23.7;13.6;;;;;;;4.95;89.00098;937.7236;;;;
2021/11/22 12:07:45;;;;;;;23.4;13.4;;;;;;;5.05;88.14258;937.7017;;;;
2021/11/22 12:10:08;;;;;;;20.2;12.5;;;;;;;5.14;87.5957;937.7341;;;;
2021/11/22 12:12:38;;;;;;;18.5;11.7;;;;;;;5.02;88.17969;937.7156;;;;
2021/11/22 12:15:11;;;;;;;20.2;11.5;;;;;;;5.13;87.63867;937.7251;;;;
2021/11/22 12:17:43;;;;;;;22;12.8;;;;;;;5.29;87.89746;937.666;;;;
2021/11/22 12:20:17;;;;;;;22.4;12.7;;;;;;;5.19;87.56152;937.6875;;;;
2021/11/22 12:22:44;;;;;;;22.2;12.8;;;;;;;5.27;87.5332;937.7224;;;;
2021/11/22 12:25:14;;;;;;;21.6;12.4;;;;;;;5.08;87.66309;937.7562;;;;
2021/11/22 12:27:39;;;;;;;21.5;12;;;;;;;4.86;88.42773;937.7178;;;;
2021/11/22 12:30:15;;;;;;;22.4;12.8;;;;;;;5.03;88.43164;937.7878;;;;
2021/11/22 12:32:42;;;;;;;22.6;12.5;;;;;;;5.06;87.68066;937.7397;;;;
2021/11/22 12:35:14;;;;;;;23.2;12.5;;;;;;;5.01;89.99316;937.8322;;;;
2021/11/22 12:37:43;;;;;;;21.5;12;;;;;;;5.08;88.04688;937.8295;;;;
2021/11/22 12:40:10;;;;;;;23;12.7;;;;;;;5;88.17773;937.7772;;;;
2021/11/22 12:42:35;;;;;;;22.2;11.8;;;;;;;5.18;87.74023;937.8638;;;;
2021/11/22 12:45:04;;;;;;;21.6;11.9;;;;;;;5.26;87.80176;937.8389;;;;
2021/11/22 12:47:31;;;;;;;20.3;11.8;;;;;;;5.14;87.30371;937.8201;;;;
2021/11/22 12:49:56;;;;;;;22.2;12.4;;;;;;;5.02;88.35059;937.8175;;;;
2021/11/22 12:52:23;;;;;;;23;13.4;;;;;;;5.08;88.41895;937.8563;;;;
2021/11/22 12:54:48;;;;;;;22.5;12.5;;;;;;;5.1;88.5918;937.9681;;;;
2021/11/22 12:57:13;;;;;;;22.9;12.8;;;;;;;5.15;88.09375;937.9529;;;;
2021/11/22 12:59:38;;;;;;;21.2;12.7;;;;;;;5;87.80664;937.9697;;;;
2021/11/22 13:02:03;;;;;;;22.9;13.2;;;;;;;5.07;88.0332;938.0019;;;;
2021/11/22 13:04:28;;;;;;;23.4;12.8;;;;;;;5.01;87.79492;938.0349;;;;
2021/11/22 13:06:57;;;;;;;21;11.8;;;;;;;4.92;88.09375;938.0266;;;;
2021/11/22 13:09:24;;;;;;;18.7;11.5;;;;;;;4.91;88.0332;938.0876;;;;
2021/11/22 13:11:50;;;;;;;19.8;12.1;;;;;;;4.82;88.70215;938.0905;;;;
2021/11/22 13:14:20;;;;;;;20.4;11.4;;;;;;;4.87;88.17285;938.0447;;;;
2021/11/22 13:16:47;;;;;;;22.1;11.8;;;;;;;4.73;88.9541;938.0511;;;;
2021/11/22 13:19:14;;;;;;;18.7;11.1;;;;;;;4.84;88.44727;938.0706;;;;
2021/11/22 13:21:39;;;;;;;19.2;11.2;;;;;;;4.92;88.46582;938.1259;;;;
2021/11/22 13:24:07;;;;;;;19.4;10.4;;;;;;;4.98;88.38672;938.1467;;;;
2021/11/22 13:26:32;;;;;;;17.3;10.2;;;;;;;5.08;87.70801;938.2043;;;;
2021/11/22 13:29:00;;;;;;;17.9;10.3;;;;;;;5.06;87.65723;938.2217;;;;
2021/11/22 13:31:27;;;;;;;18;10.8;;;;;;;4.86;88.32715;938.1956;;;;
2021/11/22 13:33:49;;;;;;;15.4;9.1;;;;;;;4.76;89.15137;938.2098;;;;
2021/11/22 13:36:17;;;;;;;16.1;9.4;;;;;;;4.61;89.61426;938.194;;;;
2021/11/22 13:38:42;;;;;;;16.2;9.9;;;;;;;4.63;89.98047;938.2737;;;;
2021/11/22 13:41:10;;;;;;;16.1;9.6;;;;;;;4.58;91.34473;938.2711;;;;
2021/11/22 13:43:35;;;;;;;15.5;8.7;;;;;;;4.58;91.0166;938.3443;;;;
2021/11/22 13:46:01;;;;;;;15.2;9.8;;;;;;;4.57;91.63574;938.2927;;;;
2021/11/22 13:48:27;;;;;;;15.3;8.9;;;;;;;4.68;91.15234;938.3535;;;;
2021/11/22 13:50:52;;;;;;;15.8;9.5;;;;;;;4.6;91.01074;938.3442;;;;
2021/11/22 13:53:17;;;;;;;15.4;9.5;;;;;;;4.68;90.58887;938.3723;;;;
2021/11/22 13:55:46;;;;;;;14.7;9.1;;;;;;;4.54;90.32324;938.2991;;;;
2021/11/22 13:58:13;;;;;;;16.4;9.1;;;;;;;4.61;90.57324;938.4537;;;;
2021/11/22 14:00:41;;;;;;;12.7;7.8;;;;;;;4.6;90.49316;938.4301;;;;
2021/11/22 14:03:05;;;;;;;15.2;8.1;;;;;;;4.54;90.67285;938.4614;;;;
2021/11/22 14:05:32;;;;;;;12.6;7.2;;;;;;;4.48;91.20898;938.5436;;;;
2021/11/22 14:07:59;;;;;;;16.3;9.2;;;;;;;4.42;91.60254;938.5419;;;;
2021/11/22 14:10:27;;;;;;;18.5;9.4;;;;;;;4.38;92.41406;938.6559;;;;
2021/11/22 14:12:52;;;;;;;13.9;7.2;;;;;;;4.58;91.72559;938.6541;;;;
2021/11/22 14:15:26;;;;;;;13.9;7.5;;;;;;;4.43;92.22363;938.628;;;;
2021/11/22 14:17:51;;;;;;;14.4;7.5;;;;;;;4.54;91.87793;938.6791;;;;
2021/11/22 14:20:17;;;;;;;12.8;7.2;;;;;;;4.65;91.44824;938.7481;;;;
2021/11/22 14:22:42;;;;;;;14.3;8.6;;;;;;;4.73;91.01758;938.6989;;;;
2021/11/22 14:25:15;;;;;;;14.6;7.2;;;;;;;4.86;90.625;938.8047;;;;
2021/11/22 14:27:41;;;;;;;11;6;;;;;;;4.62;90.58691;938.7921;;;;
2021/11/22 14:30:16;;;;;;;12.8;7.4;;;;;;;4.72;90.4502;938.8198;;;;
2021/11/22 14:32:38;;;;;;;11.6;7;;;;;;;4.67;90.50586;938.8505;;;;
2021/11/22 14:35:06;;;;;;;12.3;6.8;;;;;;;4.57;90.67871;938.8817;;;;
2021/11/22 14:37:31;;;;;;;16.2;7.7;;;;;;;4.63;90.59961;938.847;;;;
2021/11/22 14:39:56;;;;;;;12.1;6.9;;;;;;;4.65;90.41406;938.9219;;;;
2021/11/22 14:42:23;;;;;;;12.4;6.8;;;;;;;4.66;90.14551;938.9095;;;;
2021/11/22 14:44:48;;;;;;;11.1;6.6;;;;;;;4.66;90.01074;938.9813;;;;
2021/11/22 14:47:14;;;;;;;12.4;7.6;;;;;;;4.5;90.49414;939.0584;;;;
2021/11/22 14:49:39;;;;;;;9.8;6.1;;;;;;;4.59;90.43457;938.9793;;;;
2021/11/22 14:52:07;;;;;;;12;7.3;;;;;;;4.62;90.35059;939.1195;;;;
2021/11/22 14:54:33;;;;;;;11.1;6.6;;;;;;;4.56;90.38379;939.0385;;;;
2021/11/22 14:56:57;;;;;;;12;6.7;;;;;;;4.55;90.35742;939.1136;;;;
2021/11/22 14:59:24;;;;;;;11.3;6.8;;;;;;;4.49;90.25586;939.0825;;;;